Welcome to Des Moines Iowa Weather. I am an independent private personal weather station on the Northwest Side of Des Moines, Iowa. Just East of Windsor Heights and just West of Glendale . This site is also mobile friendly.

There are no active watches, warnings or advisories


Visit our other weather sites:

Historical Data

Weather Station Setup



Weather Underground History page Text

Daily Summary for January 30, 2018 Units:  English    Metric   Both
« Previous Day
Next Day »
Daily Weekly Monthly Yearly Custom
  High: Low: Average:
Temperature: 41.5 °F 13.3 °F 28 °F
Dew Point: 24.0 °F 9.0 °F 16.6 °F
Humidity: 87 % 47 % 65 %
Wind Speed: 10.0 mph 0.0 mph 2.7 mph
Wind Gust: 14.0 mph - -
Wind:- - SSE
Pressure: 30.55 in 29.71 in -
Precipitation: 0.00 in    
Historical Graphs
 
 
Tabular Data for January 30, 2018
Time Temperature Dew Point Pressure Wind Wind Speed Wind Gust Humidity Rainfall Rate (Hourly)
00:00 15.7 °F 11.0 °F 30.55 in Calm     82 % 0.00 in
00:16 15.5 °F 11.0 °F 30.55 in Calm     82 % 0.00 in
00:31 15.3 °F 11.0 °F 30.55 in Calm     82 % 0.00 in
00:46 15.0 °F 10.0 °F 30.55 in Calm     82 % 0.00 in
01:01 14.5 °F 10.0 °F 30.54 in Calm     82 % 0.00 in
01:16 14.2 °F 10.0 °F 30.54 in Calm     82 % 0.00 in
01:31 13.9 °F 9.0 °F 30.54 in Calm     82 % 0.00 in
01:46 13.6 °F 9.0 °F 30.54 in Calm     83 % 0.00 in
02:01 13.4 °F 9.0 °F 30.54 in Calm     84 % 0.00 in
02:16 13.3 °F 9.0 °F 30.54 in Calm     84 % 0.00 in
02:31 13.3 °F 10.0 °F 30.52 in Calm     85 % 0.00 in
02:46 13.3 °F 10.0 °F 30.52 in Calm     86 % 0.00 in
03:01 13.6 °F 10.0 °F 30.52 in Calm     86 % 0.00 in
03:19 14.2 °F 11.0 °F 30.51 in NNE 1.0 mph 3.0 mph 87 % 0.00 in
03:31 14.5 °F 11.0 °F 30.51 in Calm   2.0 mph 87 % 0.00 in
03:46 14.7 °F 11.0 °F 30.50 in Calm     86 % 0.00 in
04:01 14.7 °F 11.0 °F 30.50 in NNE 1.0 mph 1.0 mph 85 % 0.00 in
04:16 14.7 °F 11.0 °F 30.50 in Calm   1.0 mph 85 % 0.00 in
04:31 14.8 °F 11.0 °F 30.49 in Calm   3.0 mph 85 % 0.00 in
04:46 15.0 °F 11.0 °F 30.50 in Calm   3.0 mph 85 % 0.00 in
05:01 15.1 °F 11.0 °F 30.49 in Calm   2.0 mph 85 % 0.00 in
05:16 15.4 °F 12.0 °F 30.47 in ESE 2.0 mph 4.0 mph 85 % 0.00 in
05:31 15.8 °F 12.0 °F 30.46 in Calm   3.0 mph 85 % 0.00 in
05:46 16.2 °F 12.0 °F 30.46 in ESE 2.0 mph 3.0 mph 84 % 0.00 in
06:01 16.7 °F 13.0 °F 30.45 in Calm   4.0 mph 84 % 0.00 in
06:16 17.1 °F 13.0 °F 30.44 in ESE 1.0 mph 3.0 mph 84 % 0.00 in
06:31 17.6 °F 13.0 °F 30.43 in SE 1.0 mph 4.0 mph 83 % 0.00 in
06:46 18.1 °F 14.0 °F 30.42 in SE 2.0 mph 4.0 mph 82 % 0.00 in
07:01 18.1 °F 13.0 °F 30.42 in SE 3.0 mph 4.0 mph 81 % 0.00 in
07:16 18.2 °F 13.0 °F 30.42 in SE 1.0 mph 4.0 mph 81 % 0.00 in
07:31 18.3 °F 13.0 °F 30.41 in Calm   5.0 mph 81 % 0.00 in
07:46 18.5 °F 14.0 °F 30.42 in Calm   7.0 mph 82 % 0.00 in
08:01 18.8 °F 14.0 °F 30.42 in SSE 5.0 mph 5.0 mph 82 % 0.00 in
08:17 19.2 °F 15.0 °F 30.41 in SSE 2.0 mph 8.0 mph 82 % 0.00 in
08:32 19.7 °F 15.0 °F 30.41 in SSE 3.0 mph 7.0 mph 81 % 0.00 in
08:47 20.1 °F 15.0 °F 30.39 in SSE 2.0 mph 7.0 mph 81 % 0.00 in
09:02 20.6 °F 16.0 °F 30.38 in SSE 5.0 mph 9.0 mph 81 % 0.00 in
09:17 21.5 °F 16.0 °F 30.36 in SSE 1.0 mph 7.0 mph 80 % 0.00 in
09:32 22.7 °F 17.0 °F 30.35 in Calm   8.0 mph 78 % 0.00 in
09:47 23.7 °F 18.0 °F 30.34 in SE 3.0 mph 7.0 mph 77 % 0.00 in
10:02 24.9 °F 18.0 °F 30.34 in SSE 5.0 mph 8.0 mph 74 % 0.00 in
10:17 26.9 °F 18.0 °F 30.33 in SSW 2.0 mph 11.0 mph 70 % 0.00 in
10:32 28.0 °F 18.0 °F 30.33 in SSE 5.0 mph 8.0 mph 67 % 0.00 in
10:47 28.6 °F 18.0 °F 30.32 in SSE 7.0 mph 9.0 mph 64 % 0.00 in
11:02 28.6 °F 17.0 °F 30.30 in SSE 8.0 mph 10.0 mph 63 % 0.00 in
11:17 29.9 °F 18.0 °F 30.27 in SW 4.0 mph 14.0 mph 61 % 0.00 in
11:32 31.0 °F 18.0 °F 30.26 in South 6.0 mph 12.0 mph 58 % 0.00 in
11:47 31.6 °F 18.0 °F 30.25 in SSE 3.0 mph 13.0 mph 57 % 0.00 in
12:02 31.5 °F 17.0 °F 30.22 in SSE 2.0 mph 13.0 mph 56 % 0.00 in
12:17 32.2 °F 18.0 °F 30.19 in SE 8.0 mph 9.0 mph 56 % 0.00 in
12:33 32.8 °F 18.0 °F 30.18 in SSE 6.0 mph 9.0 mph 55 % 0.00 in
12:48 34.3 °F 19.0 °F 30.16 in SSE 4.0 mph 8.0 mph 53 % 0.00 in
13:03 35.5 °F 18.0 °F 30.13 in SSE 6.0 mph 11.0 mph 50 % 0.00 in
13:18 36.2 °F 18.0 °F 30.12 in SSW 10.0 mph 11.0 mph 48 % 0.00 in
13:33 35.2 °F 18.0 °F 30.10 in South 3.0 mph 11.0 mph 50 % 0.00 in
13:48 35.9 °F 18.0 °F 30.08 in SSE 6.0 mph 14.0 mph 49 % 0.00 in
14:03 36.1 °F 18.0 °F 30.06 in SSE 1.0 mph 10.0 mph 49 % 0.00 in
14:18 36.6 °F 19.0 °F 30.04 in South 2.0 mph 12.0 mph 49 % 0.00 in
14:37 37.3 °F 20.0 °F 30.03 in SSW 6.0 mph 12.0 mph 49 % 0.00 in
14:49 37.9 °F 20.0 °F 30.02 in South 4.0 mph 11.0 mph 48 % 0.00 in
15:08 38.2 °F 20.0 °F 30.00 in SSE 6.0 mph 10.0 mph 48 % 0.00 in
15:19 38.3 °F 20.0 °F 29.98 in SSE 7.0 mph 11.0 mph 48 % 0.00 in
15:34 38.6 °F 20.0 °F 29.98 in South 1.0 mph 13.0 mph 48 % 0.00 in
15:49 38.6 °F 20.0 °F 29.97 in SW 4.0 mph 9.0 mph 48 % 0.00 in
16:04 38.6 °F 20.0 °F 29.96 in WSW 8.0 mph 10.0 mph 47 % 0.00 in
16:19 38.5 °F 20.0 °F 29.95 in South 3.0 mph 10.0 mph 47 % 0.00 in
16:34 38.2 °F 19.0 °F 29.95 in SSW 3.0 mph 13.0 mph 47 % 0.00 in
16:49 37.9 °F 19.0 °F 29.95 in SSW 3.0 mph 8.0 mph 47 % 0.00 in
17:04 37.6 °F 19.0 °F 29.93 in South 8.0 mph 9.0 mph 47 % 0.00 in
17:19 37.1 °F 19.0 °F 29.91 in SSW 6.0 mph 9.0 mph 48 % 0.00 in
17:34 36.8 °F 19.0 °F 29.91 in South 2.0 mph 8.0 mph 49 % 0.00 in
17:49 36.7 °F 19.0 °F 29.90 in South 7.0 mph 12.0 mph 49 % 0.00 in
18:04 36.6 °F 19.0 °F 29.89 in South 7.0 mph 8.0 mph 49 % 0.00 in
18:19 36.6 °F 19.0 °F 29.89 in SSW 4.0 mph 6.0 mph 49 % 0.00 in
18:34 36.7 °F 19.0 °F 29.88 in SSW 4.0 mph 7.0 mph 49 % 0.00 in
18:49 36.9 °F 19.0 °F 29.87 in South 2.0 mph 9.0 mph 49 % 0.00 in
19:04 37.2 °F 19.0 °F 29.87 in South 2.0 mph 11.0 mph 49 % 0.00 in
19:19 37.6 °F 20.0 °F 29.85 in ESE 4.0 mph 14.0 mph 49 % 0.00 in
19:34 37.7 °F 20.0 °F 29.85 in SSW 3.0 mph 5.0 mph 49 % 0.00 in
19:49 38.1 °F 20.0 °F 29.84 in SW 5.0 mph 10.0 mph 49 % 0.00 in
20:04 38.5 °F 21.0 °F 29.84 in South 1.0 mph 9.0 mph 49 % 0.00 in
20:19 38.5 °F 21.0 °F 29.83 in SSW 1.0 mph 8.0 mph 50 % 0.00 in
20:34 38.2 °F 21.0 °F 29.82 in South 6.0 mph 6.0 mph 50 % 0.00 in
20:49 38.0 °F 21.0 °F 29.81 in SSE 6.0 mph 10.0 mph 51 % 0.00 in
21:04 37.9 °F 21.0 °F 29.80 in South 2.0 mph 7.0 mph 51 % 0.00 in
21:19 38.1 °F 21.0 °F 29.80 in Calm   8.0 mph 51 % 0.00 in
21:34 38.3 °F 22.0 °F 29.79 in WSW 6.0 mph 8.0 mph 52 % 0.00 in
21:49 38.5 °F 22.0 °F 29.77 in SSW 1.0 mph 7.0 mph 52 % 0.00 in
22:04 38.8 °F 22.0 °F 29.77 in South 1.0 mph 7.0 mph 52 % 0.00 in
22:19 39.1 °F 23.0 °F 29.76 in SSW 3.0 mph 7.0 mph 52 % 0.00 in
22:34 39.2 °F 23.0 °F 29.75 in North 2.0 mph 7.0 mph 52 % 0.00 in
22:49 39.4 °F 23.0 °F 29.75 in South 2.0 mph 8.0 mph 52 % 0.00 in
23:05 39.7 °F 23.0 °F 29.74 in SSW 1.0 mph 6.0 mph 52 % 0.00 in
23:20 40.4 °F 24.0 °F 29.73 in SSW 3.0 mph 7.0 mph 52 % 0.00 in
23:35 41.0 °F 24.0 °F 29.72 in SSW 6.0 mph 10.0 mph 51 % 0.00 in
23:50 41.5 °F 24.0 °F 29.71 in Calm   4.0 mph 51 % 0.00 in
Des Moines Weather and Climate
Compliments of Weather Underground - 3 mb

Script developed by  Jim McMurry - jmcmurry@mwt.net Adapted for the template by  Wim van der Kuil - Leuven-Template.eu

You find our weather info also at:

Weather Underground

Equipment we use:

Weather-station
Davis VP2 Plus

Weather-program
Davis Weatherlink.Com

Weather-server
iMac (Retina 4K, 21.5-inch, Late 2015)

Provider
Hostmonster.com

Davis VP2 Plus

Davis Weatherlink.Com

iMac (Retina 4K, 21.5-inch, Late 2015)

Hostmonster.com